sensor_id;sensor_type;location;lat;lon;timestamp;P1;durP1;ratioP1;P2;durP2;ratioP2
67092;SDS011;54011;50.772;7.730;2022-12-20T00:01:29;14.52;;;6.30;;
67092;SDS011;54011;50.772;7.730;2022-12-20T00:07:46;11.95;;;5.90;;
67092;SDS011;54011;50.772;7.730;2022-12-20T00:10:12;13.07;;;6.00;;
67092;SDS011;54011;50.772;7.730;2022-12-20T00:12:37;14.98;;;6.57;;
67092;SDS011;54011;50.772;7.730;2022-12-20T00:15:03;13.48;;;6.53;;
67092;SDS011;54011;50.772;7.730;2022-12-20T00:17:30;6.97;;;4.00;;
67092;SDS011;54011;50.772;7.730;2022-12-20T00:20:01;10.15;;;5.47;;
67092;SDS011;54011;50.772;7.730;2022-12-20T00:23:20;13.80;;;6.43;;
67092;SDS011;54011;50.772;7.730;2022-12-20T00:26:07;13.10;;;6.35;;
67092;SDS011;54011;50.772;7.730;2022-12-20T00:29:09;15.10;;;6.53;;
67092;SDS011;54011;50.772;7.730;2022-12-20T00:31:35;13.48;;;6.72;;
67092;SDS011;54011;50.772;7.730;2022-12-20T00:34:03;16.70;;;6.65;;
67092;SDS011;54011;50.772;7.730;2022-12-20T00:36:29;16.20;;;7.30;;
67092;SDS011;54011;50.772;7.730;2022-12-20T00:39:00;15.18;;;7.57;;
67092;SDS011;54011;50.772;7.730;2022-12-20T00:41:40;16.52;;;7.65;;
67092;SDS011;54011;50.772;7.730;2022-12-20T00:44:06;19.83;;;8.13;;
67092;SDS011;54011;50.772;7.730;2022-12-20T00:46:31;15.05;;;7.80;;
67092;SDS011;54011;50.772;7.730;2022-12-20T00:48:58;16.65;;;7.88;;
67092;SDS011;54011;50.772;7.730;2022-12-20T00:51:24;13.32;;;6.95;;
67092;SDS011;54011;50.772;7.730;2022-12-20T00:53:55;15.00;;;8.02;;
67092;SDS011;54011;50.772;7.730;2022-12-20T00:56:20;15.77;;;7.78;;
67092;SDS011;54011;50.772;7.730;2022-12-20T00:58:56;15.82;;;6.97;;
67092;SDS011;54011;50.772;7.730;2022-12-20T01:01:28;16.08;;;8.68;;
67092;SDS011;54011;50.772;7.730;2022-12-20T01:03:59;13.82;;;7.70;;
67092;SDS011;54011;50.772;7.730;2022-12-20T01:06:40;16.92;;;8.77;;
67092;SDS011;54011;50.772;7.730;2022-12-20T01:09:27;18.48;;;8.52;;
67092;SDS011;54011;50.772;7.730;2022-12-20T01:11:51;14.10;;;7.93;;
67092;SDS011;54011;50.772;7.730;2022-12-20T01:14:23;14.57;;;7.97;;
67092;SDS011;54011;50.772;7.730;2022-12-20T01:16:48;14.50;;;8.18;;
67092;SDS011;54011;50.772;7.730;2022-12-20T01:19:18;15.63;;;8.18;;
67092;SDS011;54011;50.772;7.730;2022-12-20T01:21:43;17.10;;;8.65;;
67092;SDS011;54011;50.772;7.730;2022-12-20T01:24:30;15.10;;;8.48;;
67092;SDS011;54011;50.772;7.730;2022-12-20T01:26:59;13.30;;;7.35;;
67092;SDS011;54011;50.772;7.730;2022-12-20T01:33:45;14.48;;;7.60;;
67092;SDS011;54011;50.772;7.730;2022-12-20T01:36:21;18.58;;;9.18;;
67092;SDS011;54011;50.772;7.730;2022-12-20T01:39:12;15.07;;;8.52;;
67092;SDS011;54011;50.772;7.730;2022-12-20T01:41:40;16.08;;;8.88;;
67092;SDS011;54011;50.772;7.730;2022-12-20T01:46:43;19.52;;;10.18;;
67092;SDS011;54011;50.772;7.730;2022-12-20T01:52:03;22.15;;;10.43;;
67092;SDS011;54011;50.772;7.730;2022-12-20T01:57:08;17.88;;;9.30;;
67092;SDS011;54011;50.772;7.730;2022-12-20T01:59:37;24.08;;;11.02;;
67092;SDS011;54011;50.772;7.730;2022-12-20T02:02:06;20.35;;;10.65;;
67092;SDS011;54011;50.772;7.730;2022-12-20T02:04:38;22.35;;;10.93;;
67092;SDS011;54011;50.772;7.730;2022-12-20T02:07:04;23.55;;;10.63;;
67092;SDS011;54011;50.772;7.730;2022-12-20T02:09:50;16.98;;;9.15;;
67092;SDS011;54011;50.772;7.730;2022-12-20T02:12:20;18.38;;;10.25;;
67092;SDS011;54011;50.772;7.730;2022-12-20T02:28:32;21.25;;;10.98;;
67092;SDS011;54011;50.772;7.730;2022-12-20T02:31:25;21.45;;;10.52;;
67092;SDS011;54011;50.772;7.730;2022-12-20T02:34:19;22.83;;;10.60;;
67092;SDS011;54011;50.772;7.730;2022-12-20T02:36:57;20.48;;;10.65;;
67092;SDS011;54011;50.772;7.730;2022-12-20T02:39:23;21.92;;;11.38;;
67092;SDS011;54011;50.772;7.730;2022-12-20T02:42:05;20.90;;;11.13;;
67092;SDS011;54011;50.772;7.730;2022-12-20T02:44:45;23.45;;;11.00;;
67092;SDS011;54011;50.772;7.730;2022-12-20T02:47:47;21.23;;;10.65;;
67092;SDS011;54011;50.772;7.730;2022-12-20T02:50:39;19.93;;;11.03;;
67092;SDS011;54011;50.772;7.730;2022-12-20T02:53:13;18.30;;;10.07;;
67092;SDS011;54011;50.772;7.730;2022-12-20T02:55:45;19.40;;;9.68;;
67092;SDS011;54011;50.772;7.730;2022-12-20T02:58:39;19.80;;;10.43;;
67092;SDS011;54011;50.772;7.730;2022-12-20T03:01:13;17.83;;;10.05;;
67092;SDS011;54011;50.772;7.730;2022-12-20T03:03:53;16.20;;;8.82;;
67092;SDS011;54011;50.772;7.730;2022-12-20T03:06:20;22.33;;;10.10;;
67092;SDS011;54011;50.772;7.730;2022-12-20T03:08:46;17.67;;;9.95;;
67092;SDS011;54011;50.772;7.730;2022-12-20T03:11:18;19.27;;;9.98;;
67092;SDS011;54011;50.772;7.730;2022-12-20T03:13:56;22.48;;;10.15;;
67092;SDS011;54011;50.772;7.730;2022-12-20T03:16:31;20.92;;;9.50;;
67092;SDS011;54011;50.772;7.730;2022-12-20T03:19:03;20.65;;;9.20;;
67092;SDS011;54011;50.772;7.730;2022-12-20T03:21:40;20.20;;;9.52;;
67092;SDS011;54011;50.772;7.730;2022-12-20T03:24:06;20.83;;;10.02;;
67092;SDS011;54011;50.772;7.730;2022-12-20T03:26:41;16.52;;;8.15;;
67092;SDS011;54011;50.772;7.730;2022-12-20T03:29:07;19.63;;;9.48;;
67092;SDS011;54011;50.772;7.730;2022-12-20T03:31:42;24.65;;;10.32;;
67092;SDS011;54011;50.772;7.730;2022-12-20T03:34:09;18.95;;;9.85;;
67092;SDS011;54011;50.772;7.730;2022-12-20T03:36:41;22.92;;;10.25;;
67092;SDS011;54011;50.772;7.730;2022-12-20T03:39:10;17.48;;;9.80;;
67092;SDS011;54011;50.772;7.730;2022-12-20T03:41:42;18.95;;;9.65;;
67092;SDS011;54011;50.772;7.730;2022-12-20T03:44:09;19.27;;;9.85;;
67092;SDS011;54011;50.772;7.730;2022-12-20T03:46:35;19.17;;;9.82;;
67092;SDS011;54011;50.772;7.730;2022-12-20T03:49:05;18.23;;;9.52;;
67092;SDS011;54011;50.772;7.730;2022-12-20T03:51:33;17.65;;;9.35;;
67092;SDS011;54011;50.772;7.730;2022-12-20T03:54:00;22.90;;;10.55;;
67092;SDS011;54011;50.772;7.730;2022-12-20T03:56:42;16.63;;;8.85;;
67092;SDS011;54011;50.772;7.730;2022-12-20T03:59:07;18.08;;;9.63;;
67092;SDS011;54011;50.772;7.730;2022-12-20T04:01:33;20.60;;;9.68;;
67092;SDS011;54011;50.772;7.730;2022-12-20T04:04:02;18.45;;;9.18;;
67092;SDS011;54011;50.772;7.730;2022-12-20T04:06:32;21.00;;;9.63;;
67092;SDS011;54011;50.772;7.730;2022-12-20T04:09:46;16.85;;;8.85;;
67092;SDS011;54011;50.772;7.730;2022-12-20T04:12:14;21.30;;;10.27;;
67092;SDS011;54011;50.772;7.730;2022-12-20T04:15:09;17.92;;;9.65;;
67092;SDS011;54011;50.772;7.730;2022-12-20T04:17:50;20.25;;;9.73;;
67092;SDS011;54011;50.772;7.730;2022-12-20T04:20:43;18.60;;;9.75;;
67092;SDS011;54011;50.772;7.730;2022-12-20T04:23:18;19.40;;;9.65;;
67092;SDS011;54011;50.772;7.730;2022-12-20T04:25:43;19.05;;;10.13;;
67092;SDS011;54011;50.772;7.730;2022-12-20T04:28:16;19.35;;;9.55;;
67092;SDS011;54011;50.772;7.730;2022-12-20T04:30:42;19.75;;;10.45;;
67092;SDS011;54011;50.772;7.730;2022-12-20T04:33:17;19.75;;;10.02;;
67092;SDS011;54011;50.772;7.730;2022-12-20T04:35:46;18.95;;;9.82;;
67092;SDS011;54011;50.772;7.730;2022-12-20T04:38:35;20.95;;;9.77;;
67092;SDS011;54011;50.772;7.730;2022-12-20T04:41:02;27.38;;;9.65;;
67092;SDS011;54011;50.772;7.730;2022-12-20T04:43:36;21.77;;;10.30;;
67092;SDS011;54011;50.772;7.730;2022-12-20T04:46:04;21.45;;;10.27;;
67092;SDS011;54011;50.772;7.730;2022-12-20T04:48:30;20.75;;;10.40;;
67092;SDS011;54011;50.772;7.730;2022-12-20T04:50:58;19.38;;;9.40;;
67092;SDS011;54011;50.772;7.730;2022-12-20T04:53:36;17.35;;;9.77;;
67092;SDS011;54011;50.772;7.730;2022-12-20T04:56:36;16.40;;;9.23;;
67092;SDS011;54011;50.772;7.730;2022-12-20T04:59:07;19.52;;;9.88;;
67092;SDS011;54011;50.772;7.730;2022-12-20T05:01:33;19.52;;;9.98;;
67092;SDS011;54011;50.772;7.730;2022-12-20T05:03:58;16.77;;;9.27;;
67092;SDS011;54011;50.772;7.730;2022-12-20T05:06:28;23.05;;;10.88;;
67092;SDS011;54011;50.772;7.730;2022-12-20T05:08:54;18.92;;;10.23;;
67092;SDS011;54011;50.772;7.730;2022-12-20T05:11:27;20.38;;;10.52;;
67092;SDS011;54011;50.772;7.730;2022-12-20T05:13:53;21.75;;;10.13;;
67092;SDS011;54011;50.772;7.730;2022-12-20T05:16:19;25.98;;;13.82;;
67092;SDS011;54011;50.772;7.730;2022-12-20T05:18:48;24.63;;;12.13;;
67092;SDS011;54011;50.772;7.730;2022-12-20T05:21:14;21.27;;;11.95;;
67092;SDS011;54011;50.772;7.730;2022-12-20T05:23:58;17.63;;;8.70;;
67092;SDS011;54011;50.772;7.730;2022-12-20T05:27:03;21.45;;;11.45;;
67092;SDS011;54011;50.772;7.730;2022-12-20T05:29:28;18.95;;;9.95;;
67092;SDS011;54011;50.772;7.730;2022-12-20T05:32:16;19.60;;;9.98;;
67092;SDS011;54011;50.772;7.730;2022-12-20T05:34:42;19.75;;;10.95;;
67092;SDS011;54011;50.772;7.730;2022-12-20T05:37:31;21.55;;;10.05;;
67092;SDS011;54011;50.772;7.730;2022-12-20T05:40:05;24.45;;;11.90;;
67092;SDS011;54011;50.772;7.730;2022-12-20T05:42:51;24.15;;;13.23;;
67092;SDS011;54011;50.772;7.730;2022-12-20T05:45:17;22.58;;;13.27;;
67092;SDS011;54011;50.772;7.730;2022-12-20T05:47:50;21.02;;;11.15;;
67092;SDS011;54011;50.772;7.730;2022-12-20T05:50:15;27.20;;;11.93;;
67092;SDS011;54011;50.772;7.730;2022-12-20T05:53:01;23.42;;;11.52;;
67092;SDS011;54011;50.772;7.730;2022-12-20T05:55:26;20.85;;;11.52;;
67092;SDS011;54011;50.772;7.730;2022-12-20T05:57:52;20.80;;;11.02;;
67092;SDS011;54011;50.772;7.730;2022-12-20T06:00:36;19.10;;;9.90;;
67092;SDS011;54011;50.772;7.730;2022-12-20T06:03:02;24.38;;;10.10;;
67092;SDS011;54011;50.772;7.730;2022-12-20T06:05:38;19.27;;;10.02;;
67092;SDS011;54011;50.772;7.730;2022-12-20T06:08:13;18.90;;;9.82;;
67092;SDS011;54011;50.772;7.730;2022-12-20T06:10:42;21.10;;;10.05;;
67092;SDS011;54011;50.772;7.730;2022-12-20T06:13:08;20.85;;;9.68;;
67092;SDS011;54011;50.772;7.730;2022-12-20T06:15:35;20.02;;;10.25;;
67092;SDS011;54011;50.772;7.730;2022-12-20T06:18:01;20.85;;;11.15;;
67092;SDS011;54011;50.772;7.730;2022-12-20T06:20:27;17.60;;;9.52;;
67092;SDS011;54011;50.772;7.730;2022-12-20T06:23:02;18.67;;;9.82;;
67092;SDS011;54011;50.772;7.730;2022-12-20T06:25:38;22.40;;;10.05;;
67092;SDS011;54011;50.772;7.730;2022-12-20T06:28:03;18.40;;;10.63;;
67092;SDS011;54011;50.772;7.730;2022-12-20T06:30:30;23.90;;;11.15;;
67092;SDS011;54011;50.772;7.730;2022-12-20T06:33:04;21.88;;;10.45;;
67092;SDS011;54011;50.772;7.730;2022-12-20T06:35:30;19.92;;;9.95;;
67092;SDS011;54011;50.772;7.730;2022-12-20T06:37:57;19.95;;;10.43;;
67092;SDS011;54011;50.772;7.730;2022-12-20T06:40:22;17.42;;;9.35;;
67092;SDS011;54011;50.772;7.730;2022-12-20T06:42:48;17.85;;;9.20;;
67092;SDS011;54011;50.772;7.730;2022-12-20T06:45:16;18.13;;;9.93;;
67092;SDS011;54011;50.772;7.730;2022-12-20T06:47:57;25.88;;;10.05;;
67092;SDS011;54011;50.772;7.730;2022-12-20T06:52:55;25.42;;;12.65;;
67092;SDS011;54011;50.772;7.730;2022-12-20T06:55:22;21.65;;;10.52;;
67092;SDS011;54011;50.772;7.730;2022-12-20T06:58:49;20.95;;;10.85;;
67092;SDS011;54011;50.772;7.730;2022-12-20T07:01:24;39.60;;;18.35;;
67092;SDS011;54011;50.772;7.730;2022-12-20T07:03:58;28.13;;;15.10;;
67092;SDS011;54011;50.772;7.730;2022-12-20T07:06:26;34.33;;;18.42;;
67092;SDS011;54011;50.772;7.730;2022-12-20T07:08:53;23.88;;;13.18;;
67092;SDS011;54011;50.772;7.730;2022-12-20T07:11:19;28.65;;;13.82;;
67092;SDS011;54011;50.772;7.730;2022-12-20T07:13:45;26.15;;;14.40;;
67092;SDS011;54011;50.772;7.730;2022-12-20T07:16:14;23.77;;;13.15;;
67092;SDS011;54011;50.772;7.730;2022-12-20T07:18:41;23.67;;;12.80;;
67092;SDS011;54011;50.772;7.730;2022-12-20T07:21:09;25.67;;;12.38;;
67092;SDS011;54011;50.772;7.730;2022-12-20T07:23:36;24.55;;;11.35;;
67092;SDS011;54011;50.772;7.730;2022-12-20T07:26:08;20.08;;;10.88;;
67092;SDS011;54011;50.772;7.730;2022-12-20T07:28:37;21.42;;;11.18;;
67092;SDS011;54011;50.772;7.730;2022-12-20T07:31:03;20.35;;;11.23;;
67092;SDS011;54011;50.772;7.730;2022-12-20T07:33:29;17.20;;;10.32;;
67092;SDS011;54011;50.772;7.730;2022-12-20T07:36:06;20.20;;;10.63;;
67092;SDS011;54011;50.772;7.730;2022-12-20T07:38:34;21.90;;;10.75;;
67092;SDS011;54011;50.772;7.730;2022-12-20T07:41:00;19.58;;;9.98;;
67092;SDS011;54011;50.772;7.730;2022-12-20T07:43:32;22.63;;;11.40;;
67092;SDS011;54011;50.772;7.730;2022-12-20T07:45:58;20.15;;;10.98;;
67092;SDS011;54011;50.772;7.730;2022-12-20T07:48:24;19.92;;;10.75;;
67092;SDS011;54011;50.772;7.730;2022-12-20T07:50:50;40.22;;;23.48;;
67092;SDS011;54011;50.772;7.730;2022-12-20T07:53:27;19.75;;;11.45;;
67092;SDS011;54011;50.772;7.730;2022-12-20T07:55:59;19.63;;;11.23;;
67092;SDS011;54011;50.772;7.730;2022-12-20T07:58:38;23.02;;;12.75;;
67092;SDS011;54011;50.772;7.730;2022-12-20T08:01:43;21.65;;;10.50;;
67092;SDS011;54011;50.772;7.730;2022-12-20T08:04:17;21.35;;;10.70;;
67092;SDS011;54011;50.772;7.730;2022-12-20T08:07:04;21.35;;;10.07;;
67092;SDS011;54011;50.772;7.730;2022-12-20T08:09:33;20.80;;;10.10;;
67092;SDS011;54011;50.772;7.730;2022-12-20T08:12:05;20.88;;;10.30;;
67092;SDS011;54011;50.772;7.730;2022-12-20T08:14:38;18.77;;;10.32;;
67092;SDS011;54011;50.772;7.730;2022-12-20T08:17:10;20.23;;;9.90;;
67092;SDS011;54011;50.772;7.730;2022-12-20T08:19:41;19.40;;;9.10;;
67092;SDS011;54011;50.772;7.730;2022-12-20T08:22:49;16.10;;;9.52;;
67092;SDS011;54011;50.772;7.730;2022-12-20T08:24:59;15.48;;;9.18;;
67092;SDS011;54011;50.772;7.730;2022-12-20T08:27:24;20.05;;;10.73;;
67092;SDS011;54011;50.772;7.730;2022-12-20T08:29:59;18.33;;;10.57;;
67092;SDS011;54011;50.772;7.730;2022-12-20T08:32:25;22.20;;;11.20;;
67092;SDS011;54011;50.772;7.730;2022-12-20T08:35:03;21.92;;;11.27;;
67092;SDS011;54011;50.772;7.730;2022-12-20T08:37:33;21.42;;;11.02;;
67092;SDS011;54011;50.772;7.730;2022-12-20T08:40:00;26.20;;;10.80;;
67092;SDS011;54011;50.772;7.730;2022-12-20T08:42:26;23.55;;;11.07;;
67092;SDS011;54011;50.772;7.730;2022-12-20T08:45:09;19.10;;;11.07;;
67092;SDS011;54011;50.772;7.730;2022-12-20T08:47:35;22.00;;;10.70;;
67092;SDS011;54011;50.772;7.730;2022-12-20T08:50:00;21.55;;;10.55;;
67092;SDS011;54011;50.772;7.730;2022-12-20T08:52:32;22.45;;;11.10;;
67092;SDS011;54011;50.772;7.730;2022-12-20T08:55:04;19.85;;;10.38;;
67092;SDS011;54011;50.772;7.730;2022-12-20T08:57:30;24.88;;;11.60;;
67092;SDS011;54011;50.772;7.730;2022-12-20T08:59:59;21.90;;;10.90;;
67092;SDS011;54011;50.772;7.730;2022-12-20T09:02:33;17.35;;;10.65;;
67092;SDS011;54011;50.772;7.730;2022-12-20T09:05:05;17.52;;;11.02;;
67092;SDS011;54011;50.772;7.730;2022-12-20T09:07:33;19.92;;;9.68;;
67092;SDS011;54011;50.772;7.730;2022-12-20T09:12:30;19.63;;;10.10;;
67092;SDS011;54011;50.772;7.730;2022-12-20T09:14:59;18.65;;;10.30;;
67092;SDS011;54011;50.772;7.730;2022-12-20T09:17:46;16.98;;;9.77;;
67092;SDS011;54011;50.772;7.730;2022-12-20T09:20:15;18.40;;;10.77;;
67092;SDS011;54011;50.772;7.730;2022-12-20T09:25:45;16.35;;;7.93;;
67092;SDS011;54011;50.772;7.730;2022-12-20T09:28:11;15.95;;;7.75;;
67092;SDS011;54011;50.772;7.730;2022-12-20T09:30:40;18.42;;;8.00;;
67092;SDS011;54011;50.772;7.730;2022-12-20T09:33:05;15.80;;;7.85;;
67092;SDS011;54011;50.772;7.730;2022-12-20T09:35:31;18.52;;;8.82;;
67092;SDS011;54011;50.772;7.730;2022-12-20T09:37:58;20.25;;;11.98;;
67092;SDS011;54011;50.772;7.730;2022-12-20T09:40:27;18.55;;;9.68;;
67092;SDS011;54011;50.772;7.730;2022-12-20T09:42:56;15.23;;;8.68;;
67092;SDS011;54011;50.772;7.730;2022-12-20T09:46:05;16.88;;;8.35;;
67092;SDS011;54011;50.772;7.730;2022-12-20T10:00:20;21.88;;;8.15;;
67092;SDS011;54011;50.772;7.730;2022-12-20T10:02:46;15.70;;;7.68;;
67092;SDS011;54011;50.772;7.730;2022-12-20T10:05:13;13.65;;;7.63;;
67092;SDS011;54011;50.772;7.730;2022-12-20T10:07:51;15.38;;;7.57;;
67092;SDS011;54011;50.772;7.730;2022-12-20T10:15:32;16.10;;;7.30;;
67092;SDS011;54011;50.772;7.730;2022-12-20T10:18:16;19.45;;;9.70;;
67092;SDS011;54011;50.772;7.730;2022-12-20T10:20:50;13.48;;;7.40;;
67092;SDS011;54011;50.772;7.730;2022-12-20T10:23:24;13.25;;;6.72;;
67092;SDS011;54011;50.772;7.730;2022-12-20T10:26:07;17.27;;;7.85;;
67092;SDS011;54011;50.772;7.730;2022-12-20T10:28:34;13.38;;;7.68;;
67092;SDS011;54011;50.772;7.730;2022-12-20T10:31:02;13.60;;;7.97;;
67092;SDS011;54011;50.772;7.730;2022-12-20T10:33:31;13.07;;;7.35;;
67092;SDS011;54011;50.772;7.730;2022-12-20T10:38:48;14.70;;;8.00;;
67092;SDS011;54011;50.772;7.730;2022-12-20T10:41:16;13.43;;;7.20;;
67092;SDS011;54011;50.772;7.730;2022-12-20T10:43:45;20.42;;;8.32;;
67092;SDS011;54011;50.772;7.730;2022-12-20T10:46:13;15.85;;;7.65;;
67092;SDS011;54011;50.772;7.730;2022-12-20T10:48:41;14.30;;;7.13;;
67092;SDS011;54011;50.772;7.730;2022-12-20T10:53:58;15.35;;;7.63;;
67092;SDS011;54011;50.772;7.730;2022-12-20T11:01:31;12.35;;;7.25;;
67092;SDS011;54011;50.772;7.730;2022-12-20T11:04:01;12.35;;;6.72;;
67092;SDS011;54011;50.772;7.730;2022-12-20T11:06:38;15.90;;;7.30;;
67092;SDS011;54011;50.772;7.730;2022-12-20T11:09:23;16.27;;;7.70;;
67092;SDS011;54011;50.772;7.730;2022-12-20T11:12:04;12.02;;;7.05;;
67092;SDS011;54011;50.772;7.730;2022-12-20T11:14:38;13.50;;;6.82;;
67092;SDS011;54011;50.772;7.730;2022-12-20T11:23:23;11.30;;;6.03;;
67092;SDS011;54011;50.772;7.730;2022-12-20T11:31:50;11.45;;;5.60;;
67092;SDS011;54011;50.772;7.730;2022-12-20T11:37:23;9.68;;;5.22;;
67092;SDS011;54011;50.772;7.730;2022-12-20T11:42:49;10.83;;;5.57;;
67092;SDS011;54011;50.772;7.730;2022-12-20T11:45:24;12.27;;;5.18;;
67092;SDS011;54011;50.772;7.730;2022-12-20T11:50:41;8.70;;;4.40;;
67092;SDS011;54011;50.772;7.730;2022-12-20T11:54:17;9.60;;;4.50;;
67092;SDS011;54011;50.772;7.730;2022-12-20T11:56:41;11.05;;;4.47;;
67092;SDS011;54011;50.772;7.730;2022-12-20T12:02:04;8.73;;;4.40;;
67092;SDS011;54011;50.772;7.730;2022-12-20T12:04:39;10.32;;;4.78;;
67092;SDS011;54011;50.772;7.730;2022-12-20T12:07:19;9.50;;;4.30;;
67092;SDS011;54011;50.772;7.730;2022-12-20T12:09:51;7.03;;;3.58;;
67092;SDS011;54011;50.772;7.730;2022-12-20T12:12:26;7.57;;;3.78;;
67092;SDS011;54011;50.772;7.730;2022-12-20T12:17:41;5.47;;;2.92;;
67092;SDS011;54011;50.772;7.730;2022-12-20T12:22:46;8.48;;;3.75;;
67092;SDS011;54011;50.772;7.730;2022-12-20T12:25:15;8.10;;;3.72;;
67092;SDS011;54011;50.772;7.730;2022-12-20T12:27:42;8.43;;;3.80;;
67092;SDS011;54011;50.772;7.730;2022-12-20T12:30:13;8.55;;;3.53;;
67092;SDS011;54011;50.772;7.730;2022-12-20T12:32:47;11.63;;;5.15;;
67092;SDS011;54011;50.772;7.730;2022-12-20T12:38:14;10.85;;;3.65;;
67092;SDS011;54011;50.772;7.730;2022-12-20T12:41:05;7.32;;;2.70;;
67092;SDS011;54011;50.772;7.730;2022-12-20T12:44:21;6.95;;;2.90;;
67092;SDS011;54011;50.772;7.730;2022-12-20T12:47:13;9.48;;;3.08;;
67092;SDS011;54011;50.772;7.730;2022-12-20T12:49:46;6.70;;;2.95;;
67092;SDS011;54011;50.772;7.730;2022-12-20T12:55:02;5.85;;;2.92;;
67092;SDS011;54011;50.772;7.730;2022-12-20T12:57:27;5.95;;;2.78;;
67092;SDS011;54011;50.772;7.730;2022-12-20T12:59:53;4.93;;;2.30;;
67092;SDS011;54011;50.772;7.730;2022-12-20T13:02:22;5.90;;;2.92;;
67092;SDS011;54011;50.772;7.730;2022-12-20T13:07:24;6.38;;;2.63;;
67092;SDS011;54011;50.772;7.730;2022-12-20T13:10:00;8.63;;;2.80;;
67092;SDS011;54011;50.772;7.730;2022-12-20T13:17:47;9.05;;;3.70;;
67092;SDS011;54011;50.772;7.730;2022-12-20T13:20:20;6.20;;;3.10;;
67092;SDS011;54011;50.772;7.730;2022-12-20T13:23:35;6.22;;;2.83;;
67092;SDS011;54011;50.772;7.730;2022-12-20T13:25:39;5.78;;;2.92;;
67092;SDS011;54011;50.772;7.730;2022-12-20T13:30:43;5.78;;;2.72;;
67092;SDS011;54011;50.772;7.730;2022-12-20T13:33:23;8.23;;;3.10;;
67092;SDS011;54011;50.772;7.730;2022-12-20T13:36:04;9.05;;;3.28;;
67092;SDS011;54011;50.772;7.730;2022-12-20T13:41:46;6.75;;;2.60;;
67092;SDS011;54011;50.772;7.730;2022-12-20T13:46:41;6.05;;;2.58;;
67092;SDS011;54011;50.772;7.730;2022-12-20T13:49:25;6.45;;;2.60;;
67092;SDS011;54011;50.772;7.730;2022-12-20T13:52:10;7.00;;;2.55;;
67092;SDS011;54011;50.772;7.730;2022-12-20T13:54:46;5.40;;;2.30;;
67092;SDS011;54011;50.772;7.730;2022-12-20T13:57:15;11.43;;;3.78;;
67092;SDS011;54011;50.772;7.730;2022-12-20T13:59:45;13.13;;;5.38;;
67092;SDS011;54011;50.772;7.730;2022-12-20T14:02:17;11.70;;;5.35;;
67092;SDS011;54011;50.772;7.730;2022-12-20T14:04:55;11.02;;;3.00;;
67092;SDS011;54011;50.772;7.730;2022-12-20T14:07:23;6.78;;;2.65;;
67092;SDS011;54011;50.772;7.730;2022-12-20T14:09:54;5.65;;;2.28;;
67092;SDS011;54011;50.772;7.730;2022-12-20T14:12:25;7.43;;;2.30;;
67092;SDS011;54011;50.772;7.730;2022-12-20T14:14:52;7.70;;;3.55;;
67092;SDS011;54011;50.772;7.730;2022-12-20T14:22:33;5.10;;;2.67;;
67092;SDS011;54011;50.772;7.730;2022-12-20T14:24:59;5.97;;;2.65;;
67092;SDS011;54011;50.772;7.730;2022-12-20T14:27:27;6.85;;;2.42;;
67092;SDS011;54011;50.772;7.730;2022-12-20T14:29:54;7.07;;;2.53;;
67092;SDS011;54011;50.772;7.730;2022-12-20T14:32:20;5.20;;;2.30;;
67092;SDS011;54011;50.772;7.730;2022-12-20T14:34:46;5.18;;;2.50;;
67092;SDS011;54011;50.772;7.730;2022-12-20T14:42:34;8.93;;;2.72;;
67092;SDS011;54011;50.772;7.730;2022-12-20T14:47:50;6.80;;;2.50;;
67092;SDS011;54011;50.772;7.730;2022-12-20T14:50:21;6.97;;;2.53;;
67092;SDS011;54011;50.772;7.730;2022-12-20T14:52:53;6.75;;;2.88;;
67092;SDS011;54011;50.772;7.730;2022-12-20T14:55:20;6.82;;;3.28;;
67092;SDS011;54011;50.772;7.730;2022-12-20T14:57:52;7.82;;;2.85;;
67092;SDS011;54011;50.772;7.730;2022-12-20T15:00:24;9.75;;;3.25;;
67092;SDS011;54011;50.772;7.730;2022-12-20T15:13:16;9.90;;;3.83;;
67092;SDS011;54011;50.772;7.730;2022-12-20T15:15:43;8.60;;;3.33;;
67092;SDS011;54011;50.772;7.730;2022-12-20T15:18:17;9.48;;;3.50;;
67092;SDS011;54011;50.772;7.730;2022-12-20T15:20:44;7.22;;;3.60;;
67092;SDS011;54011;50.772;7.730;2022-12-20T15:23:13;7.05;;;3.42;;
67092;SDS011;54011;50.772;7.730;2022-12-20T15:25:40;10.25;;;3.83;;
67092;SDS011;54011;50.772;7.730;2022-12-20T15:28:16;13.85;;;4.25;;
67092;SDS011;54011;50.772;7.730;2022-12-20T15:30:45;9.05;;;4.32;;
67092;SDS011;54011;50.772;7.730;2022-12-20T15:33:13;10.57;;;4.53;;
67092;SDS011;54011;50.772;7.730;2022-12-20T15:35:41;10.52;;;4.40;;
67092;SDS011;54011;50.772;7.730;2022-12-20T15:38:14;11.82;;;5.10;;
67092;SDS011;54011;50.772;7.730;2022-12-20T15:40:42;12.23;;;5.25;;
67092;SDS011;54011;50.772;7.730;2022-12-20T15:43:10;11.02;;;4.93;;
67092;SDS011;54011;50.772;7.730;2022-12-20T15:45:37;9.40;;;5.30;;
67092;SDS011;54011;50.772;7.730;2022-12-20T15:48:03;7.55;;;4.35;;
67092;SDS011;54011;50.772;7.730;2022-12-20T15:50:28;8.23;;;4.40;;
67092;SDS011;54011;50.772;7.730;2022-12-20T15:52:54;9.77;;;4.63;;
67092;SDS011;54011;50.772;7.730;2022-12-20T15:55:19;20.63;;;11.27;;
67092;SDS011;54011;50.772;7.730;2022-12-20T15:57:47;10.73;;;5.90;;
67092;SDS011;54011;50.772;7.730;2022-12-20T16:00:12;15.45;;;8.07;;
67092;SDS011;54011;50.772;7.730;2022-12-20T16:02:38;9.82;;;5.80;;
67092;SDS011;54011;50.772;7.730;2022-12-20T16:05:03;11.60;;;5.50;;
67092;SDS011;54011;50.772;7.730;2022-12-20T16:07:29;12.18;;;5.70;;
67092;SDS011;54011;50.772;7.730;2022-12-20T16:09:55;14.35;;;6.68;;
67092;SDS011;54011;50.772;7.730;2022-12-20T16:12:31;10.23;;;5.30;;
67092;SDS011;54011;50.772;7.730;2022-12-20T16:14:58;8.68;;;4.97;;
67092;SDS011;54011;50.772;7.730;2022-12-20T16:17:23;15.07;;;6.18;;
67092;SDS011;54011;50.772;7.730;2022-12-20T16:19:49;12.93;;;6.30;;
67092;SDS011;54011;50.772;7.730;2022-12-20T16:22:15;11.07;;;5.50;;
67092;SDS011;54011;50.772;7.730;2022-12-20T16:24:43;12.30;;;5.60;;
67092;SDS011;54011;50.772;7.730;2022-12-20T16:27:09;11.80;;;6.60;;
67092;SDS011;54011;50.772;7.730;2022-12-20T16:29:35;13.77;;;7.20;;
67092;SDS011;54011;50.772;7.730;2022-12-20T16:32:00;13.20;;;6.90;;
67092;SDS011;54011;50.772;7.730;2022-12-20T16:34:26;15.02;;;7.30;;
67092;SDS011;54011;50.772;7.730;2022-12-20T16:36:52;12.75;;;6.15;;
67092;SDS011;54011;50.772;7.730;2022-12-20T16:39:18;10.93;;;5.32;;
67092;SDS011;54011;50.772;7.730;2022-12-20T16:41:43;8.80;;;4.30;;
67092;SDS011;54011;50.772;7.730;2022-12-20T16:44:13;9.45;;;4.30;;
67092;SDS011;54011;50.772;7.730;2022-12-20T16:46:40;8.32;;;4.80;;
67092;SDS011;54011;50.772;7.730;2022-12-20T16:49:07;10.25;;;4.25;;
67092;SDS011;54011;50.772;7.730;2022-12-20T16:54:02;11.93;;;6.65;;
67092;SDS011;54011;50.772;7.730;2022-12-20T16:56:36;14.60;;;7.88;;
67092;SDS011;54011;50.772;7.730;2022-12-20T16:59:02;12.27;;;5.43;;
67092;SDS011;54011;50.772;7.730;2022-12-20T17:01:36;7.93;;;4.32;;
67092;SDS011;54011;50.772;7.730;2022-12-20T17:04:03;10.52;;;5.32;;
67092;SDS011;54011;50.772;7.730;2022-12-20T17:06:29;11.43;;;5.80;;
67092;SDS011;54011;50.772;7.730;2022-12-20T17:08:55;10.85;;;5.13;;
67092;SDS011;54011;50.772;7.730;2022-12-20T17:11:22;11.73;;;5.05;;
67092;SDS011;54011;50.772;7.730;2022-12-20T17:13:50;8.00;;;4.47;;
67092;SDS011;54011;50.772;7.730;2022-12-20T17:16:17;7.28;;;3.70;;
67092;SDS011;54011;50.772;7.730;2022-12-20T17:18:43;9.60;;;4.38;;
67092;SDS011;54011;50.772;7.730;2022-12-20T17:21:21;9.38;;;4.30;;
67092;SDS011;54011;50.772;7.730;2022-12-20T17:23:47;11.07;;;3.90;;
67092;SDS011;54011;50.772;7.730;2022-12-20T17:26:20;12.38;;;5.95;;